sensor_id;sensor_type;location;lat;lon;timestamp;P1;durP1;ratioP1;P2;durP2;ratioP2
7831;SDS011;3961;42.058;25.586;2023-08-06T00:00:15;12.77;;;7.00;;
7831;SDS011;3961;42.058;25.586;2023-08-06T00:02:40;15.17;;;7.47;;
7831;SDS011;3961;42.058;25.586;2023-08-06T00:05:06;11.30;;;7.20;;
7831;SDS011;3961;42.058;25.586;2023-08-06T00:07:32;10.77;;;7.23;;
7831;SDS011;3961;42.058;25.586;2023-08-06T00:09:57;11.00;;;7.37;;
7831;SDS011;3961;42.058;25.586;2023-08-06T00:12:23;10.23;;;7.83;;
7831;SDS011;3961;42.058;25.586;2023-08-06T00:14:51;9.90;;;7.93;;
7831;SDS011;3961;42.058;25.586;2023-08-06T00:17:17;9.57;;;7.50;;
7831;SDS011;3961;42.058;25.586;2023-08-06T00:19:43;12.07;;;7.37;;
7831;SDS011;3961;42.058;25.586;2023-08-06T00:22:08;14.13;;;7.97;;
7831;SDS011;3961;42.058;25.586;2023-08-06T00:24:34;9.07;;;7.40;;
7831;SDS011;3961;42.058;25.586;2023-08-06T00:27:00;12.07;;;7.20;;
7831;SDS011;3961;42.058;25.586;2023-08-06T00:29:25;13.13;;;7.73;;
7831;SDS011;3961;42.058;25.586;2023-08-06T00:31:50;12.40;;;7.47;;
7831;SDS011;3961;42.058;25.586;2023-08-06T00:34:16;9.73;;;7.63;;
7831;SDS011;3961;42.058;25.586;2023-08-06T00:36:41;12.83;;;8.27;;
7831;SDS011;3961;42.058;25.586;2023-08-06T00:39:07;13.17;;;7.50;;
7831;SDS011;3961;42.058;25.586;2023-08-06T00:41:32;11.97;;;7.50;;
7831;SDS011;3961;42.058;25.586;2023-08-06T00:43:57;10.30;;;7.77;;
7831;SDS011;3961;42.058;25.586;2023-08-06T00:46:23;18.83;;;8.07;;
7831;SDS011;3961;42.058;25.586;2023-08-06T00:48:49;10.57;;;8.07;;
7831;SDS011;3961;42.058;25.586;2023-08-06T00:51:16;13.87;;;8.27;;
7831;SDS011;3961;42.058;25.586;2023-08-06T00:53:41;11.37;;;8.40;;
7831;SDS011;3961;42.058;25.586;2023-08-06T00:56:08;12.23;;;8.27;;
7831;SDS011;3961;42.058;25.586;2023-08-06T00:58:34;11.90;;;8.47;;
7831;SDS011;3961;42.058;25.586;2023-08-06T01:01:01;12.53;;;8.43;;
7831;SDS011;3961;42.058;25.586;2023-08-06T01:03:26;16.13;;;8.70;;
7831;SDS011;3961;42.058;25.586;2023-08-06T01:05:52;15.10;;;8.97;;
7831;SDS011;3961;42.058;25.586;2023-08-06T01:13:42;13.53;;;8.97;;
7831;SDS011;3961;42.058;25.586;2023-08-06T01:16:17;13.60;;;8.87;;
7831;SDS011;3961;42.058;25.586;2023-08-06T01:18:44;10.43;;;8.13;;
7831;SDS011;3961;42.058;25.586;2023-08-06T01:21:14;11.17;;;8.87;;
7831;SDS011;3961;42.058;25.586;2023-08-06T01:23:43;13.60;;;8.50;;
7831;SDS011;3961;42.058;25.586;2023-08-06T01:28:48;13.60;;;8.80;;
7831;SDS011;3961;42.058;25.586;2023-08-06T01:31:39;13.67;;;8.83;;
7831;SDS011;3961;42.058;25.586;2023-08-06T01:34:13;11.87;;;8.90;;
7831;SDS011;3961;42.058;25.586;2023-08-06T01:36:42;13.13;;;8.80;;
7831;SDS011;3961;42.058;25.586;2023-08-06T01:39:08;12.40;;;8.73;;
7831;SDS011;3961;42.058;25.586;2023-08-06T01:41:34;15.33;;;9.23;;
7831;SDS011;3961;42.058;25.586;2023-08-06T01:43:59;13.97;;;8.80;;
7831;SDS011;3961;42.058;25.586;2023-08-06T01:46:25;15.10;;;9.63;;
7831;SDS011;3961;42.058;25.586;2023-08-06T01:48:50;14.97;;;9.60;;
7831;SDS011;3961;42.058;25.586;2023-08-06T01:51:16;19.03;;;10.40;;
7831;SDS011;3961;42.058;25.586;2023-08-06T01:53:41;13.70;;;9.67;;
7831;SDS011;3961;42.058;25.586;2023-08-06T01:56:06;13.90;;;9.40;;
7831;SDS011;3961;42.058;25.586;2023-08-06T01:58:32;14.87;;;10.10;;
7831;SDS011;3961;42.058;25.586;2023-08-06T02:00:57;12.27;;;9.53;;
7831;SDS011;3961;42.058;25.586;2023-08-06T02:03:23;15.10;;;9.83;;
7831;SDS011;3961;42.058;25.586;2023-08-06T02:05:48;13.73;;;9.87;;
7831;SDS011;3961;42.058;25.586;2023-08-06T02:08:14;12.00;;;9.70;;
7831;SDS011;3961;42.058;25.586;2023-08-06T02:10:39;14.40;;;9.63;;
7831;SDS011;3961;42.058;25.586;2023-08-06T02:13:04;14.47;;;10.53;;
7831;SDS011;3961;42.058;25.586;2023-08-06T02:15:30;11.30;;;10.10;;
7831;SDS011;3961;42.058;25.586;2023-08-06T02:17:55;13.60;;;10.57;;
7831;SDS011;3961;42.058;25.586;2023-08-06T02:20:21;15.70;;;10.70;;
7831;SDS011;3961;42.058;25.586;2023-08-06T02:22:46;11.57;;;10.37;;
7831;SDS011;3961;42.058;25.586;2023-08-06T02:25:12;13.07;;;10.00;;
7831;SDS011;3961;42.058;25.586;2023-08-06T02:27:37;16.57;;;10.57;;
7831;SDS011;3961;42.058;25.586;2023-08-06T02:30:03;12.73;;;10.17;;
7831;SDS011;3961;42.058;25.586;2023-08-06T02:32:29;17.60;;;11.17;;
7831;SDS011;3961;42.058;25.586;2023-08-06T02:34:56;12.77;;;10.03;;
7831;SDS011;3961;42.058;25.586;2023-08-06T02:37:22;15.90;;;10.30;;
7831;SDS011;3961;42.058;25.586;2023-08-06T02:39:47;14.97;;;9.50;;
7831;SDS011;3961;42.058;25.586;2023-08-06T02:42:13;15.60;;;10.17;;
7831;SDS011;3961;42.058;25.586;2023-08-06T02:44:38;15.07;;;10.90;;
7831;SDS011;3961;42.058;25.586;2023-08-06T02:47:04;11.50;;;9.33;;
7831;SDS011;3961;42.058;25.586;2023-08-06T02:49:29;13.20;;;9.50;;
7831;SDS011;3961;42.058;25.586;2023-08-06T02:51:55;16.47;;;10.77;;
7831;SDS011;3961;42.058;25.586;2023-08-06T02:54:20;15.47;;;10.43;;
7831;SDS011;3961;42.058;25.586;2023-08-06T02:56:46;11.40;;;10.20;;
7831;SDS011;3961;42.058;25.586;2023-08-06T02:59:12;15.87;;;11.37;;
7831;SDS011;3961;42.058;25.586;2023-08-06T03:01:38;16.03;;;10.90;;
7831;SDS011;3961;42.058;25.586;2023-08-06T03:04:03;15.53;;;10.83;;
7831;SDS011;3961;42.058;25.586;2023-08-06T03:06:29;15.20;;;10.37;;
7831;SDS011;3961;42.058;25.586;2023-08-06T03:08:55;16.63;;;11.60;;
7831;SDS011;3961;42.058;25.586;2023-08-06T03:11:20;16.27;;;11.03;;
7831;SDS011;3961;42.058;25.586;2023-08-06T03:13:46;16.40;;;11.63;;
7831;SDS011;3961;42.058;25.586;2023-08-06T03:16:12;15.20;;;10.57;;
7831;SDS011;3961;42.058;25.586;2023-08-06T03:18:37;17.83;;;10.73;;
7831;SDS011;3961;42.058;25.586;2023-08-06T03:21:03;12.93;;;10.43;;
7831;SDS011;3961;42.058;25.586;2023-08-06T03:23:28;12.40;;;10.10;;
7831;SDS011;3961;42.058;25.586;2023-08-06T03:25:54;12.67;;;10.33;;
7831;SDS011;3961;42.058;25.586;2023-08-06T03:28:19;15.70;;;10.63;;
7831;SDS011;3961;42.058;25.586;2023-08-06T03:30:45;19.73;;;11.40;;
7831;SDS011;3961;42.058;25.586;2023-08-06T03:33:10;15.57;;;11.10;;
7831;SDS011;3961;42.058;25.586;2023-08-06T03:35:35;13.57;;;10.60;;
7831;SDS011;3961;42.058;25.586;2023-08-06T03:38:01;18.10;;;11.97;;
7831;SDS011;3961;42.058;25.586;2023-08-06T03:40:26;17.87;;;12.17;;
7831;SDS011;3961;42.058;25.586;2023-08-06T03:42:52;22.60;;;12.47;;
7831;SDS011;3961;42.058;25.586;2023-08-06T03:45:17;16.30;;;12.40;;
7831;SDS011;3961;42.058;25.586;2023-08-06T03:47:43;17.57;;;13.67;;
7831;SDS011;3961;42.058;25.586;2023-08-06T03:50:08;18.80;;;13.60;;
7831;SDS011;3961;42.058;25.586;2023-08-06T03:52:34;19.40;;;12.77;;
7831;SDS011;3961;42.058;25.586;2023-08-06T03:54:59;14.20;;;11.87;;
7831;SDS011;3961;42.058;25.586;2023-08-06T03:57:24;19.77;;;13.73;;
7831;SDS011;3961;42.058;25.586;2023-08-06T03:59:50;18.87;;;11.87;;
7831;SDS011;3961;42.058;25.586;2023-08-06T04:02:15;18.80;;;13.00;;
7831;SDS011;3961;42.058;25.586;2023-08-06T04:04:41;18.40;;;14.00;;
7831;SDS011;3961;42.058;25.586;2023-08-06T04:07:06;19.57;;;12.23;;
7831;SDS011;3961;42.058;25.586;2023-08-06T04:09:32;15.07;;;12.33;;
7831;SDS011;3961;42.058;25.586;2023-08-06T04:11:57;16.53;;;13.07;;
7831;SDS011;3961;42.058;25.586;2023-08-06T04:14:23;25.93;;;19.10;;
7831;SDS011;3961;42.058;25.586;2023-08-06T04:16:51;29.50;;;21.17;;
7831;SDS011;3961;42.058;25.586;2023-08-06T04:19:16;32.63;;;21.77;;
7831;SDS011;3961;42.058;25.586;2023-08-06T04:21:41;29.20;;;21.17;;
7831;SDS011;3961;42.058;25.586;2023-08-06T04:24:07;26.40;;;19.53;;
7831;SDS011;3961;42.058;25.586;2023-08-06T04:26:32;26.60;;;20.07;;
7831;SDS011;3961;42.058;25.586;2023-08-06T04:28:58;24.60;;;18.30;;
7831;SDS011;3961;42.058;25.586;2023-08-06T04:31:23;23.63;;;18.57;;
7831;SDS011;3961;42.058;25.586;2023-08-06T04:33:48;21.70;;;17.77;;
7831;SDS011;3961;42.058;25.586;2023-08-06T04:36:14;25.23;;;20.00;;
7831;SDS011;3961;42.058;25.586;2023-08-06T04:38:39;25.67;;;17.17;;
7831;SDS011;3961;42.058;25.586;2023-08-06T04:41:09;27.50;;;19.50;;
7831;SDS011;3961;42.058;25.586;2023-08-06T04:43:34;28.97;;;18.20;;
7831;SDS011;3961;42.058;25.586;2023-08-06T04:46:00;24.67;;;18.70;;
7831;SDS011;3961;42.058;25.586;2023-08-06T04:48:25;24.77;;;17.80;;
7831;SDS011;3961;42.058;25.586;2023-08-06T04:50:51;28.63;;;18.17;;
7831;SDS011;3961;42.058;25.586;2023-08-06T04:53:16;34.23;;;18.43;;
7831;SDS011;3961;42.058;25.586;2023-08-06T04:55:42;21.73;;;17.83;;
7831;SDS011;3961;42.058;25.586;2023-08-06T04:58:08;21.67;;;17.10;;
7831;SDS011;3961;42.058;25.586;2023-08-06T05:00:35;23.93;;;17.27;;
7831;SDS011;3961;42.058;25.586;2023-08-06T05:03:01;28.13;;;15.73;;
7831;SDS011;3961;42.058;25.586;2023-08-06T05:05:27;23.87;;;15.83;;
7831;SDS011;3961;42.058;25.586;2023-08-06T05:07:53;24.60;;;16.23;;
7831;SDS011;3961;42.058;25.586;2023-08-06T05:10:19;27.03;;;17.17;;
7831;SDS011;3961;42.058;25.586;2023-08-06T05:12:45;22.17;;;17.20;;
7831;SDS011;3961;42.058;25.586;2023-08-06T05:15:10;23.80;;;17.37;;
7831;SDS011;3961;42.058;25.586;2023-08-06T05:17:36;26.80;;;17.43;;
7831;SDS011;3961;42.058;25.586;2023-08-06T05:20:01;26.00;;;16.53;;
7831;SDS011;3961;42.058;25.586;2023-08-06T05:22:27;24.77;;;18.87;;
7831;SDS011;3961;42.058;25.586;2023-08-06T05:24:52;27.47;;;20.33;;
7831;SDS011;3961;42.058;25.586;2023-08-06T05:27:18;23.43;;;18.23;;
7831;SDS011;3961;42.058;25.586;2023-08-06T05:29:47;25.83;;;18.97;;
7831;SDS011;3961;42.058;25.586;2023-08-06T05:32:13;28.77;;;20.97;;
7831;SDS011;3961;42.058;25.586;2023-08-06T05:34:38;28.57;;;19.60;;
7831;SDS011;3961;42.058;25.586;2023-08-06T05:37:04;28.40;;;21.23;;
7831;SDS011;3961;42.058;25.586;2023-08-06T05:39:29;29.30;;;21.60;;
7831;SDS011;3961;42.058;25.586;2023-08-06T05:41:55;23.50;;;18.83;;
7831;SDS011;3961;42.058;25.586;2023-08-06T05:44:21;38.77;;;22.87;;
7831;SDS011;3961;42.058;25.586;2023-08-06T05:46:46;27.37;;;22.23;;
7831;SDS011;3961;42.058;25.586;2023-08-06T05:49:12;30.83;;;22.33;;
7831;SDS011;3961;42.058;25.586;2023-08-06T05:51:39;24.27;;;20.13;;
7831;SDS011;3961;42.058;25.586;2023-08-06T05:54:04;28.80;;;21.47;;
7831;SDS011;3961;42.058;25.586;2023-08-06T05:56:30;29.40;;;21.00;;
7831;SDS011;3961;42.058;25.586;2023-08-06T05:58:55;29.40;;;22.03;;
7831;SDS011;3961;42.058;25.586;2023-08-06T06:01:20;28.23;;;22.67;;
7831;SDS011;3961;42.058;25.586;2023-08-06T06:03:46;29.80;;;22.07;;
7831;SDS011;3961;42.058;25.586;2023-08-06T06:06:11;27.50;;;21.73;;
7831;SDS011;3961;42.058;25.586;2023-08-06T06:08:37;26.33;;;21.30;;
7831;SDS011;3961;42.058;25.586;2023-08-06T06:11:02;23.13;;;18.67;;
7831;SDS011;3961;42.058;25.586;2023-08-06T06:13:28;25.97;;;20.70;;
7831;SDS011;3961;42.058;25.586;2023-08-06T06:15:56;26.00;;;20.47;;
7831;SDS011;3961;42.058;25.586;2023-08-06T06:18:21;21.70;;;18.10;;
7831;SDS011;3961;42.058;25.586;2023-08-06T06:20:47;19.67;;;15.80;;
7831;SDS011;3961;42.058;25.586;2023-08-06T06:23:13;22.07;;;18.57;;
7831;SDS011;3961;42.058;25.586;2023-08-06T06:25:57;23.00;;;16.47;;
7831;SDS011;3961;42.058;25.586;2023-08-06T06:28:22;26.23;;;16.40;;
7831;SDS011;3961;42.058;25.586;2023-08-06T06:30:48;24.10;;;19.17;;
7831;SDS011;3961;42.058;25.586;2023-08-06T06:33:13;26.00;;;20.00;;
7831;SDS011;3961;42.058;25.586;2023-08-06T06:35:39;26.20;;;18.57;;
7831;SDS011;3961;42.058;25.586;2023-08-06T06:38:04;22.60;;;17.77;;
7831;SDS011;3961;42.058;25.586;2023-08-06T06:40:30;23.53;;;18.00;;
7831;SDS011;3961;42.058;25.586;2023-08-06T06:42:55;21.80;;;18.37;;
7831;SDS011;3961;42.058;25.586;2023-08-06T06:45:21;25.47;;;19.37;;
7831;SDS011;3961;42.058;25.586;2023-08-06T06:47:46;24.03;;;18.67;;
7831;SDS011;3961;42.058;25.586;2023-08-06T06:50:12;23.13;;;17.47;;
7831;SDS011;3961;42.058;25.586;2023-08-06T06:52:37;29.90;;;19.43;;
7831;SDS011;3961;42.058;25.586;2023-08-06T06:55:03;25.53;;;16.63;;
7831;SDS011;3961;42.058;25.586;2023-08-06T06:57:29;21.47;;;16.27;;
7831;SDS011;3961;42.058;25.586;2023-08-06T06:59:54;26.80;;;18.03;;
7831;SDS011;3961;42.058;25.586;2023-08-06T07:02:19;28.70;;;17.83;;
7831;SDS011;3961;42.058;25.586;2023-08-06T07:04:45;26.13;;;18.53;;
7831;SDS011;3961;42.058;25.586;2023-08-06T07:07:10;21.60;;;16.60;;
7831;SDS011;3961;42.058;25.586;2023-08-06T07:09:36;34.07;;;18.97;;
7831;SDS011;3961;42.058;25.586;2023-08-06T07:12:01;23.63;;;17.40;;
7831;SDS011;3961;42.058;25.586;2023-08-06T07:14:28;27.33;;;17.60;;
7831;SDS011;3961;42.058;25.586;2023-08-06T07:16:53;29.07;;;17.20;;
7831;SDS011;3961;42.058;25.586;2023-08-06T07:19:19;22.73;;;17.63;;
7831;SDS011;3961;42.058;25.586;2023-08-06T07:21:44;24.13;;;18.57;;
7831;SDS011;3961;42.058;25.586;2023-08-06T07:24:09;22.80;;;16.93;;
7831;SDS011;3961;42.058;25.586;2023-08-06T07:26:35;24.50;;;15.47;;
7831;SDS011;3961;42.058;25.586;2023-08-06T07:29:00;28.43;;;18.20;;
7831;SDS011;3961;42.058;25.586;2023-08-06T07:31:26;38.63;;;20.00;;
7831;SDS011;3961;42.058;25.586;2023-08-06T07:33:52;30.07;;;19.90;;
7831;SDS011;3961;42.058;25.586;2023-08-06T07:36:17;35.53;;;20.20;;
7831;SDS011;3961;42.058;25.586;2023-08-06T07:38:43;27.50;;;20.90;;
7831;SDS011;3961;42.058;25.586;2023-08-06T07:41:08;31.17;;;20.53;;
7831;SDS011;3961;42.058;25.586;2023-08-06T07:43:34;33.73;;;20.57;;
7831;SDS011;3961;42.058;25.586;2023-08-06T07:46:00;31.27;;;19.37;;
7831;SDS011;3961;42.058;25.586;2023-08-06T07:48:26;20.13;;;15.17;;
7831;SDS011;3961;42.058;25.586;2023-08-06T07:50:57;16.77;;;13.23;;
7831;SDS011;3961;42.058;25.586;2023-08-06T07:53:23;20.17;;;13.93;;
7831;SDS011;3961;42.058;25.586;2023-08-06T07:55:52;16.33;;;9.20;;
7831;SDS011;3961;42.058;25.586;2023-08-06T07:58:19;12.30;;;10.30;;
7831;SDS011;3961;42.058;25.586;2023-08-06T08:00:45;13.77;;;7.03;;
7831;SDS011;3961;42.058;25.586;2023-08-06T08:03:14;11.70;;;7.20;;
7831;SDS011;3961;42.058;25.586;2023-08-06T08:05:41;14.43;;;6.80;;
7831;SDS011;3961;42.058;25.586;2023-08-06T08:08:07;9.13;;;6.00;;
7831;SDS011;3961;42.058;25.586;2023-08-06T08:10:33;8.17;;;5.20;;
7831;SDS011;3961;42.058;25.586;2023-08-06T08:12:59;8.90;;;4.97;;
7831;SDS011;3961;42.058;25.586;2023-08-06T08:15:25;7.57;;;5.03;;
7831;SDS011;3961;42.058;25.586;2023-08-06T08:17:51;7.23;;;5.17;;
7831;SDS011;3961;42.058;25.586;2023-08-06T08:20:17;6.90;;;5.07;;
7831;SDS011;3961;42.058;25.586;2023-08-06T08:22:43;12.10;;;6.03;;
7831;SDS011;3961;42.058;25.586;2023-08-06T08:25:08;9.90;;;6.60;;
7831;SDS011;3961;42.058;25.586;2023-08-06T08:27:33;8.57;;;6.30;;
7831;SDS011;3961;42.058;25.586;2023-08-06T08:29:59;6.13;;;4.13;;
7831;SDS011;3961;42.058;25.586;2023-08-06T08:32:24;6.43;;;3.70;;
7831;SDS011;3961;42.058;25.586;2023-08-06T08:34:50;7.97;;;3.97;;
7831;SDS011;3961;42.058;25.586;2023-08-06T08:37:15;6.53;;;3.50;;
7831;SDS011;3961;42.058;25.586;2023-08-06T08:39:40;5.83;;;3.57;;
7831;SDS011;3961;42.058;25.586;2023-08-06T08:42:06;9.50;;;3.83;;
7831;SDS011;3961;42.058;25.586;2023-08-06T08:44:32;10.43;;;4.17;;
7831;SDS011;3961;42.058;25.586;2023-08-06T08:46:59;6.07;;;3.10;;
7831;SDS011;3961;42.058;25.586;2023-08-06T08:49:25;7.17;;;3.20;;
7831;SDS011;3961;42.058;25.586;2023-08-06T08:51:53;6.23;;;2.70;;
7831;SDS011;3961;42.058;25.586;2023-08-06T08:54:20;5.53;;;2.80;;
7831;SDS011;3961;42.058;25.586;2023-08-06T08:56:48;3.13;;;2.00;;
7831;SDS011;3961;42.058;25.586;2023-08-06T08:59:13;20.23;;;3.07;;
7831;SDS011;3961;42.058;25.586;2023-08-06T09:01:39;8.17;;;2.40;;
7831;SDS011;3961;42.058;25.586;2023-08-06T09:04:07;7.50;;;3.07;;
7831;SDS011;3961;42.058;25.586;2023-08-06T09:06:34;4.90;;;2.53;;
7831;SDS011;3961;42.058;25.586;2023-08-06T09:09:09;9.00;;;3.73;;
7831;SDS011;3961;42.058;25.586;2023-08-06T09:11:44;6.27;;;2.57;;
7831;SDS011;3961;42.058;25.586;2023-08-06T09:14:11;4.73;;;2.70;;
7831;SDS011;3961;42.058;25.586;2023-08-06T09:16:37;6.87;;;3.80;;
7831;SDS011;3961;42.058;25.586;2023-08-06T09:21:38;6.93;;;5.00;;
7831;SDS011;3961;42.058;25.586;2023-08-06T09:24:11;5.10;;;4.27;;
7831;SDS011;3961;42.058;25.586;2023-08-06T09:26:40;8.70;;;4.67;;
7831;SDS011;3961;42.058;25.586;2023-08-06T09:29:06;5.60;;;4.88;;
7831;SDS011;3961;42.058;25.586;2023-08-06T09:31:46;9.30;;;6.15;;
7831;SDS011;3961;42.058;25.586;2023-08-06T09:34:16;11.18;;;7.68;;
7831;SDS011;3961;42.058;25.586;2023-08-06T09:36:43;11.60;;;10.13;;
7831;SDS011;3961;42.058;25.586;2023-08-06T09:39:12;12.05;;;10.80;;
7831;SDS011;3961;42.058;25.586;2023-08-06T09:41:39;16.07;;;14.57;;
7831;SDS011;3961;42.058;25.586;2023-08-06T09:44:05;18.55;;;16.75;;
7831;SDS011;3961;42.058;25.586;2023-08-06T09:46:31;20.40;;;18.35;;
7831;SDS011;3961;42.058;25.586;2023-08-06T09:48:57;20.75;;;17.02;;
7831;SDS011;3961;42.058;25.586;2023-08-06T09:51:22;18.65;;;16.88;;
7831;SDS011;3961;42.058;25.586;2023-08-06T09:53:48;19.85;;;17.80;;
7831;SDS011;3961;42.058;25.586;2023-08-06T09:56:13;26.63;;;18.17;;
7831;SDS011;3961;42.058;25.586;2023-08-06T09:58:42;23.48;;;17.80;;
7831;SDS011;3961;42.058;25.586;2023-08-06T10:01:09;20.05;;;17.95;;
7831;SDS011;3961;42.058;25.586;2023-08-06T10:03:36;17.30;;;15.60;;
7831;SDS011;3961;42.058;25.586;2023-08-06T10:06:01;14.77;;;13.20;;
7831;SDS011;3961;42.058;25.586;2023-08-06T10:08:32;15.38;;;13.88;;
7831;SDS011;3961;42.058;25.586;2023-08-06T10:10:57;15.82;;;14.07;;
7831;SDS011;3961;42.058;25.586;2023-08-06T10:13:23;13.68;;;12.23;;
7831;SDS011;3961;42.058;25.586;2023-08-06T10:15:50;13.18;;;11.95;;
7831;SDS011;3961;42.058;25.586;2023-08-06T10:18:16;14.02;;;12.60;;
7831;SDS011;3961;42.058;25.586;2023-08-06T10:20:46;16.73;;;12.20;;
7831;SDS011;3961;42.058;25.586;2023-08-06T10:23:12;14.50;;;10.20;;
7831;SDS011;3961;42.058;25.586;2023-08-06T10:25:42;15.32;;;10.65;;
7831;SDS011;3961;42.058;25.586;2023-08-06T10:28:11;15.65;;;11.75;;
7831;SDS011;3961;42.058;25.586;2023-08-06T10:30:46;15.80;;;10.88;;
7831;SDS011;3961;42.058;25.586;2023-08-06T10:33:12;11.13;;;9.43;;
7831;SDS011;3961;42.058;25.586;2023-08-06T10:35:42;11.68;;;8.73;;
7831;SDS011;3961;42.058;25.586;2023-08-06T10:38:12;12.02;;;9.98;;
7831;SDS011;3961;42.058;25.586;2023-08-06T10:40:41;15.02;;;12.02;;
7831;SDS011;3961;42.058;25.586;2023-08-06T10:43:32;15.05;;;10.88;;
7831;SDS011;3961;42.058;25.586;2023-08-06T10:45:59;12.05;;;10.98;;
7831;SDS011;3961;42.058;25.586;2023-08-06T10:48:31;11.82;;;10.65;;
7831;SDS011;3961;42.058;25.586;2023-08-06T10:51:01;11.15;;;9.95;;
7831;SDS011;3961;42.058;25.586;2023-08-06T10:53:27;13.15;;;10.05;;
7831;SDS011;3961;42.058;25.586;2023-08-06T10:55:52;11.23;;;10.02;;
7831;SDS011;3961;42.058;25.586;2023-08-06T10:58:17;12.10;;;10.65;;
7831;SDS011;3961;42.058;25.586;2023-08-06T11:00:43;11.30;;;10.13;;
7831;SDS011;3961;42.058;25.586;2023-08-06T11:03:09;16.38;;;14.60;;
7831;SDS011;3961;42.058;25.586;2023-08-06T11:05:35;15.65;;;14.02;;
7831;SDS011;3961;42.058;25.586;2023-08-06T11:08:00;15.60;;;14.10;;
7831;SDS011;3961;42.058;25.586;2023-08-06T11:10:26;20.27;;;15.70;;
7831;SDS011;3961;42.058;25.586;2023-08-06T11:12:51;17.88;;;15.98;;
7831;SDS011;3961;42.058;25.586;2023-08-06T11:15:17;18.23;;;16.48;;
7831;SDS011;3961;42.058;25.586;2023-08-06T11:17:45;18.80;;;16.67;;
7831;SDS011;3961;42.058;25.586;2023-08-06T11:20:11;18.05;;;16.15;;
7831;SDS011;3961;42.058;25.586;2023-08-06T11:22:37;18.35;;;16.60;;
7831;SDS011;3961;42.058;25.586;2023-08-06T11:25:04;19.75;;;17.33;;
7831;SDS011;3961;42.058;25.586;2023-08-06T11:27:30;18.73;;;16.92;;
7831;SDS011;3961;42.058;25.586;2023-08-06T11:29:56;17.63;;;15.82;;
7831;SDS011;3961;42.058;25.586;2023-08-06T11:32:21;17.42;;;15.68;;
7831;SDS011;3961;42.058;25.586;2023-08-06T11:34:47;16.65;;;14.95;;
7831;SDS011;3961;42.058;25.586;2023-08-06T11:37:12;15.73;;;13.80;;
7831;SDS011;3961;42.058;25.586;2023-08-06T11:39:38;12.98;;;11.60;;
7831;SDS011;3961;42.058;25.586;2023-08-06T11:42:09;15.90;;;13.35;;
7831;SDS011;3961;42.058;25.586;2023-08-06T11:44:36;15.75;;;14.30;;
7831;SDS011;3961;42.058;25.586;2023-08-06T11:47:03;16.40;;;14.80;;
7831;SDS011;3961;42.058;25.586;2023-08-06T11:52:07;15.27;;;12.52;;
7831;SDS011;3961;42.058;25.586;2023-08-06T11:54:39;11.55;;;10.45;;
7831;SDS011;3961;42.058;25.586;2023-08-06T11:57:07;13.20;;;10.43;;
7831;SDS011;3961;42.058;25.586;2023-08-06T11:59:33;10.20;;;9.20;;
7831;SDS011;3961;42.058;25.586;2023-08-06T12:02:05;9.85;;;7.80;;
7831;SDS011;3961;42.058;25.586;2023-08-06T12:07:30;8.88;;;7.97;;
7831;SDS011;3961;42.058;25.586;2023-08-06T12:10:02;10.23;;;8.80;;
7831;SDS011;3961;42.058;25.586;2023-08-06T12:12:27;9.68;;;8.70;;
7831;SDS011;3961;42.058;25.586;2023-08-06T12:14:53;9.85;;;8.95;;
7831;SDS011;3961;42.058;25.586;2023-08-06T12:17:19;10.70;;;9.57;;
7831;SDS011;3961;42.058;25.586;2023-08-06T12:19:45;10.93;;;9.93;;
7831;SDS011;3961;42.058;25.586;2023-08-06T12:22:14;11.27;;;8.60;;
7831;SDS011;3961;42.058;25.586;2023-08-06T12:24:40;10.68;;;9.55;;
7831;SDS011;3961;42.058;25.586;2023-08-06T12:27:07;11.05;;;9.88;;
7831;SDS011;3961;42.058;25.586;2023-08-06T12:29:32;10.27;;;9.20;;
7831;SDS011;3961;42.058;25.586;2023-08-06T12:31:58;10.95;;;9.70;;
7831;SDS011;3961;42.058;25.586;2023-08-06T12:34:23;10.57;;;8.80;;
7831;SDS011;3961;42.058;25.586;2023-08-06T12:36:48;9.13;;;8.02;;
7831;SDS011;3961;42.058;25.586;2023-08-06T12:39:14;7.95;;;7.15;;
7831;SDS011;3961;42.058;25.586;2023-08-06T12:41:39;7.68;;;6.65;;
7831;SDS011;3961;42.058;25.586;2023-08-06T12:44:05;9.05;;;7.28;;
7831;SDS011;3961;42.058;25.586;2023-08-06T12:46:30;9.70;;;8.60;;
7831;SDS011;3961;42.058;25.586;2023-08-06T12:48:56;9.13;;;8.23;;
7831;SDS011;3961;42.058;25.586;2023-08-06T12:51:22;12.85;;;11.00;;
7831;SDS011;3961;42.058;25.586;2023-08-06T12:53:48;9.90;;;8.90;;
7831;SDS011;3961;42.058;25.586;2023-08-06T12:56:14;11.10;;;8.93;;
7831;SDS011;3961;42.058;25.586;2023-08-06T12:58:39;11.13;;;9.82;;
7831;SDS011;3961;42.058;25.586;2023-08-06T13:01:05;8.30;;;7.50;;
7831;SDS011;3961;42.058;25.586;2023-08-06T13:03:30;7.57;;;6.95;;
7831;SDS011;3961;42.058;25.586;2023-08-06T13:05:56;7.57;;;6.88;;
7831;SDS011;3961;42.058;25.586;2023-08-06T13:08:23;8.55;;;6.57;;
7831;SDS011;3961;42.058;25.586;2023-08-06T13:10:48;8.20;;;7.40;;
7831;SDS011;3961;42.058;25.586;2023-08-06T13:13:14;8.90;;;5.97;;
7831;SDS011;3961;42.058;25.586;2023-08-06T13:15:39;8.07;;;7.18;;
7831;SDS011;3961;42.058;25.586;2023-08-06T13:18:04;7.22;;;6.35;;
7831;SDS011;3961;42.058;25.586;2023-08-06T13:20:30;7.22;;;6.45;;
7831;SDS011;3961;42.058;25.586;2023-08-06T13:22:57;8.75;;;6.18;;
7831;SDS011;3961;42.058;25.586;2023-08-06T13:25:23;9.80;;;5.88;;
7831;SDS011;3961;42.058;25.586;2023-08-06T13:27:50;12.02;;;6.20;;
7831;SDS011;3961;42.058;25.586;2023-08-06T13:30:16;7.45;;;5.80;;
7831;SDS011;3961;42.058;25.586;2023-08-06T13:32:43;6.68;;;5.65;;
7831;SDS011;3961;42.058;25.586;2023-08-06T13:35:09;7.78;;;5.80;;
7831;SDS011;3961;42.058;25.586;2023-08-06T13:37:35;6.18;;;5.35;;
7831;SDS011;3961;42.058;25.586;2023-08-06T13:40:00;8.38;;;7.43;;
7831;SDS011;3961;42.058;25.586;2023-08-06T13:42:26;9.90;;;8.55;;
7831;SDS011;3961;42.058;25.586;2023-08-06T13:44:51;12.52;;;8.32;;
7831;SDS011;3961;42.058;25.586;2023-08-06T13:47:17;9.13;;;8.23;;
7831;SDS011;3961;42.058;25.586;2023-08-06T13:49:43;10.63;;;8.40;;
7831;SDS011;3961;42.058;25.586;2023-08-06T13:52:08;9.73;;;8.73;;
7831;SDS011;3961;42.058;25.586;2023-08-06T13:54:34;9.50;;;7.43;;
7831;SDS011;3961;42.058;25.586;2023-08-06T13:56:59;8.33;;;7.53;;
7831;SDS011;3961;42.058;25.586;2023-08-06T13:59:24;8.27;;;7.47;;
7831;SDS011;3961;42.058;25.586;2023-08-06T14:01:50;7.33;;;6.60;;
7831;SDS011;3961;42.058;25.586;2023-08-06T14:04:16;7.60;;;6.90;;
7831;SDS011;3961;42.058;25.586;2023-08-06T14:06:41;7.80;;;7.10;;
7831;SDS011;3961;42.058;25.586;2023-08-06T14:09:07;9.40;;;7.23;;
7831;SDS011;3961;42.058;25.586;2023-08-06T14:11:33;9.97;;;8.93;;
7831;SDS011;3961;42.058;25.586;2023-08-06T14:13:58;12.20;;;11.10;;
7831;SDS011;3961;42.058;25.586;2023-08-06T14:16:25;13.37;;;11.80;;
7831;SDS011;3961;42.058;25.586;2023-08-06T14:18:50;9.27;;;8.37;;
7831;SDS011;3961;42.058;25.586;2023-08-06T14:21:16;19.87;;;17.87;;
7831;SDS011;3961;42.058;25.586;2023-08-06T14:23:41;16.37;;;14.67;;
7831;SDS011;3961;42.058;25.586;2023-08-06T14:26:07;11.13;;;10.03;;
7831;SDS011;3961;42.058;25.586;2023-08-06T14:28:32;8.83;;;7.93;;
7831;SDS011;3961;42.058;25.586;2023-08-06T14:30:58;14.48;;;12.98;;
7831;SDS011;3961;42.058;25.586;2023-08-06T14:33:23;21.43;;;19.23;;
7831;SDS011;3961;42.058;25.586;2023-08-06T14:35:49;22.80;;;20.40;;
7831;SDS011;3961;42.058;25.586;2023-08-06T14:38:14;23.97;;;20.07;;
7831;SDS011;3961;42.058;25.586;2023-08-06T14:40:40;24.93;;;22.37;;
7831;SDS011;3961;42.058;25.586;2023-08-06T14:43:05;23.33;;;20.97;;
7831;SDS011;3961;42.058;25.586;2023-08-06T14:45:31;15.80;;;13.73;;
7831;SDS011;3961;42.058;25.586;2023-08-06T14:47:56;17.93;;;12.93;;
7831;SDS011;3961;42.058;25.586;2023-08-06T14:50:22;9.57;;;8.57;;
7831;SDS011;3961;42.058;25.586;2023-08-06T14:52:48;11.37;;;9.00;;